sensor_id;sensor_type;location;lat;lon;timestamp;P1;durP1;ratioP1;P2;durP2;ratioP2
85385;SDS011;75792;42.686;23.298;2024-03-02T00:00:11;26.17;;;13.48;;
85385;SDS011;75792;42.686;23.298;2024-03-02T00:02:41;22.83;;;11.75;;
85385;SDS011;75792;42.686;23.298;2024-03-02T00:05:07;24.73;;;12.10;;
85385;SDS011;75792;42.686;23.298;2024-03-02T00:07:36;23.60;;;11.50;;
85385;SDS011;75792;42.686;23.298;2024-03-02T00:10:03;23.23;;;11.15;;
85385;SDS011;75792;42.686;23.298;2024-03-02T00:12:35;25.45;;;12.65;;
85385;SDS011;75792;42.686;23.298;2024-03-02T00:15:01;22.77;;;12.57;;
85385;SDS011;75792;42.686;23.298;2024-03-02T00:17:27;27.45;;;13.32;;
85385;SDS011;75792;42.686;23.298;2024-03-02T00:19:54;24.77;;;12.45;;
85385;SDS011;75792;42.686;23.298;2024-03-02T00:22:20;23.30;;;12.40;;
85385;SDS011;75792;42.686;23.298;2024-03-02T00:24:45;27.65;;;14.90;;
85385;SDS011;75792;42.686;23.298;2024-03-02T00:27:12;24.52;;;12.70;;
85385;SDS011;75792;42.686;23.298;2024-03-02T00:29:40;24.13;;;11.50;;
85385;SDS011;75792;42.686;23.298;2024-03-02T00:32:16;21.85;;;11.70;;
85385;SDS011;75792;42.686;23.298;2024-03-02T00:34:42;22.80;;;11.30;;
85385;SDS011;75792;42.686;23.298;2024-03-02T00:37:07;25.73;;;12.15;;
85385;SDS011;75792;42.686;23.298;2024-03-02T00:39:33;23.38;;;13.02;;
85385;SDS011;75792;42.686;23.298;2024-03-02T00:41:59;21.15;;;11.70;;
85385;SDS011;75792;42.686;23.298;2024-03-02T00:44:25;20.58;;;14.07;;
85385;SDS011;75792;42.686;23.298;2024-03-02T00:46:51;24.42;;;12.77;;
85385;SDS011;75792;42.686;23.298;2024-03-02T00:51:48;20.08;;;11.43;;
85385;SDS011;75792;42.686;23.298;2024-03-02T00:54:15;23.75;;;12.65;;
85385;SDS011;75792;42.686;23.298;2024-03-02T00:56:44;19.30;;;11.35;;
85385;SDS011;75792;42.686;23.298;2024-03-02T00:59:10;18.83;;;11.85;;
85385;SDS011;75792;42.686;23.298;2024-03-02T01:01:36;20.23;;;11.57;;
85385;SDS011;75792;42.686;23.298;2024-03-02T01:04:02;22.40;;;11.70;;
85385;SDS011;75792;42.686;23.298;2024-03-02T01:06:27;21.63;;;10.68;;
85385;SDS011;75792;42.686;23.298;2024-03-02T01:08:52;19.80;;;11.75;;
85385;SDS011;75792;42.686;23.298;2024-03-02T01:11:18;20.33;;;10.43;;
85385;SDS011;75792;42.686;23.298;2024-03-02T01:13:46;18.40;;;11.15;;
85385;SDS011;75792;42.686;23.298;2024-03-02T01:16:12;18.33;;;10.27;;
85385;SDS011;75792;42.686;23.298;2024-03-02T01:18:38;23.15;;;12.65;;
85385;SDS011;75792;42.686;23.298;2024-03-02T01:21:03;19.35;;;10.52;;
85385;SDS011;75792;42.686;23.298;2024-03-02T01:23:29;18.73;;;12.02;;
85385;SDS011;75792;42.686;23.298;2024-03-02T01:25:54;18.95;;;10.40;;
85385;SDS011;75792;42.686;23.298;2024-03-02T01:28:20;16.73;;;10.32;;
85385;SDS011;75792;42.686;23.298;2024-03-02T01:30:46;20.58;;;11.98;;
85385;SDS011;75792;42.686;23.298;2024-03-02T01:33:12;17.70;;;10.38;;
85385;SDS011;75792;42.686;23.298;2024-03-02T01:35:37;15.88;;;9.90;;
85385;SDS011;75792;42.686;23.298;2024-03-02T01:38:03;23.02;;;11.27;;
85385;SDS011;75792;42.686;23.298;2024-03-02T01:40:31;18.50;;;11.05;;
85385;SDS011;75792;42.686;23.298;2024-03-02T01:42:57;16.88;;;10.00;;
85385;SDS011;75792;42.686;23.298;2024-03-02T01:45:25;18.45;;;10.45;;
85385;SDS011;75792;42.686;23.298;2024-03-02T01:47:50;20.50;;;12.02;;
85385;SDS011;75792;42.686;23.298;2024-03-02T01:50:16;20.88;;;10.85;;
85385;SDS011;75792;42.686;23.298;2024-03-02T01:52:50;19.27;;;11.15;;
85385;SDS011;75792;42.686;23.298;2024-03-02T01:55:15;24.05;;;13.70;;
85385;SDS011;75792;42.686;23.298;2024-03-02T01:57:41;24.67;;;12.18;;
85385;SDS011;75792;42.686;23.298;2024-03-02T02:00:06;28.00;;;11.90;;
85385;SDS011;75792;42.686;23.298;2024-03-02T02:02:32;22.05;;;12.18;;
85385;SDS011;75792;42.686;23.298;2024-03-02T02:04:58;26.17;;;12.98;;
85385;SDS011;75792;42.686;23.298;2024-03-02T02:07:23;20.95;;;11.07;;
85385;SDS011;75792;42.686;23.298;2024-03-02T02:09:48;22.77;;;11.40;;
85385;SDS011;75792;42.686;23.298;2024-03-02T02:12:14;24.83;;;12.18;;
85385;SDS011;75792;42.686;23.298;2024-03-02T02:14:46;25.27;;;15.75;;
85385;SDS011;75792;42.686;23.298;2024-03-02T02:17:12;24.13;;;12.35;;
85385;SDS011;75792;42.686;23.298;2024-03-02T02:19:37;22.35;;;12.93;;
85385;SDS011;75792;42.686;23.298;2024-03-02T02:22:05;23.52;;;12.75;;
85385;SDS011;75792;42.686;23.298;2024-03-02T02:24:31;25.33;;;13.80;;
85385;SDS011;75792;42.686;23.298;2024-03-02T02:26:56;24.02;;;13.10;;
85385;SDS011;75792;42.686;23.298;2024-03-02T02:29:21;24.88;;;12.40;;
85385;SDS011;75792;42.686;23.298;2024-03-02T02:31:47;27.70;;;14.40;;
85385;SDS011;75792;42.686;23.298;2024-03-02T02:34:13;26.25;;;13.30;;
85385;SDS011;75792;42.686;23.298;2024-03-02T02:36:40;25.30;;;13.95;;
85385;SDS011;75792;42.686;23.298;2024-03-02T02:39:05;30.85;;;15.10;;
85385;SDS011;75792;42.686;23.298;2024-03-02T02:41:35;27.83;;;14.18;;
85385;SDS011;75792;42.686;23.298;2024-03-02T02:44:01;26.85;;;13.75;;
85385;SDS011;75792;42.686;23.298;2024-03-02T02:46:26;25.80;;;13.95;;
85385;SDS011;75792;42.686;23.298;2024-03-02T02:48:51;23.92;;;14.90;;
85385;SDS011;75792;42.686;23.298;2024-03-02T02:53:43;25.08;;;13.32;;
85385;SDS011;75792;42.686;23.298;2024-03-02T02:56:09;23.67;;;13.43;;
85385;SDS011;75792;42.686;23.298;2024-03-02T02:58:35;23.88;;;12.82;;
85385;SDS011;75792;42.686;23.298;2024-03-02T03:01:00;28.00;;;14.65;;
85385;SDS011;75792;42.686;23.298;2024-03-02T03:03:26;25.92;;;12.70;;
85385;SDS011;75792;42.686;23.298;2024-03-02T03:05:51;29.88;;;13.70;;
85385;SDS011;75792;42.686;23.298;2024-03-02T03:08:16;23.63;;;12.30;;
85385;SDS011;75792;42.686;23.298;2024-03-02T03:10:42;27.08;;;15.77;;
85385;SDS011;75792;42.686;23.298;2024-03-02T03:13:07;24.58;;;12.88;;
85385;SDS011;75792;42.686;23.298;2024-03-02T03:15:36;28.52;;;15.63;;
85385;SDS011;75792;42.686;23.298;2024-03-02T03:18:02;28.45;;;13.88;;
85385;SDS011;75792;42.686;23.298;2024-03-02T03:20:28;25.20;;;13.90;;
85385;SDS011;75792;42.686;23.298;2024-03-02T03:22:55;36.70;;;18.08;;
85385;SDS011;75792;42.686;23.298;2024-03-02T03:27:46;37.27;;;16.90;;
85385;SDS011;75792;42.686;23.298;2024-03-02T03:30:11;33.78;;;18.08;;
85385;SDS011;75792;42.686;23.298;2024-03-02T03:32:37;36.90;;;18.63;;
85385;SDS011;75792;42.686;23.298;2024-03-02T03:35:03;32.72;;;15.20;;
85385;SDS011;75792;42.686;23.298;2024-03-02T03:37:29;35.08;;;17.85;;
85385;SDS011;75792;42.686;23.298;2024-03-02T03:39:58;37.15;;;15.90;;
85385;SDS011;75792;42.686;23.298;2024-03-02T03:42:35;33.80;;;15.43;;
85385;SDS011;75792;42.686;23.298;2024-03-02T03:45:01;49.22;;;18.98;;
85385;SDS011;75792;42.686;23.298;2024-03-02T03:47:26;36.15;;;16.02;;
85385;SDS011;75792;42.686;23.298;2024-03-02T03:49:51;36.58;;;17.67;;
85385;SDS011;75792;42.686;23.298;2024-03-02T03:52:17;32.97;;;16.50;;
85385;SDS011;75792;42.686;23.298;2024-03-02T03:54:42;35.15;;;18.95;;
85385;SDS011;75792;42.686;23.298;2024-03-02T03:57:08;36.28;;;19.40;;
85385;SDS011;75792;42.686;23.298;2024-03-02T03:59:33;37.30;;;18.35;;
85385;SDS011;75792;42.686;23.298;2024-03-02T04:01:59;39.50;;;19.15;;
85385;SDS011;75792;42.686;23.298;2024-03-02T04:04:24;37.97;;;18.70;;
85385;SDS011;75792;42.686;23.298;2024-03-02T04:06:49;38.85;;;21.33;;
85385;SDS011;75792;42.686;23.298;2024-03-02T04:09:15;38.28;;;20.15;;
85385;SDS011;75792;42.686;23.298;2024-03-02T04:11:40;38.95;;;19.35;;
85385;SDS011;75792;42.686;23.298;2024-03-02T04:14:06;39.50;;;23.48;;
85385;SDS011;75792;42.686;23.298;2024-03-02T04:16:31;44.88;;;19.73;;
85385;SDS011;75792;42.686;23.298;2024-03-02T04:18:56;44.85;;;22.25;;
85385;SDS011;75792;42.686;23.298;2024-03-02T04:21:22;41.58;;;19.90;;
85385;SDS011;75792;42.686;23.298;2024-03-02T04:23:47;37.83;;;19.25;;
85385;SDS011;75792;42.686;23.298;2024-03-02T04:26:13;34.55;;;18.80;;
85385;SDS011;75792;42.686;23.298;2024-03-02T04:28:39;34.72;;;18.58;;
85385;SDS011;75792;42.686;23.298;2024-03-02T04:31:05;42.40;;;20.33;;
85385;SDS011;75792;42.686;23.298;2024-03-02T04:33:30;38.38;;;20.48;;
85385;SDS011;75792;42.686;23.298;2024-03-02T04:35:55;37.60;;;19.20;;
85385;SDS011;75792;42.686;23.298;2024-03-02T04:38:22;44.92;;;22.45;;
85385;SDS011;75792;42.686;23.298;2024-03-02T04:40:48;40.47;;;20.23;;
85385;SDS011;75792;42.686;23.298;2024-03-02T04:43:13;45.80;;;24.13;;
85385;SDS011;75792;42.686;23.298;2024-03-02T04:45:41;45.90;;;22.15;;
85385;SDS011;75792;42.686;23.298;2024-03-02T04:50:32;45.23;;;22.33;;
85385;SDS011;75792;42.686;23.298;2024-03-02T04:52:58;53.35;;;28.08;;
85385;SDS011;75792;42.686;23.298;2024-03-02T04:55:23;65.10;;;31.67;;
85385;SDS011;75792;42.686;23.298;2024-03-02T04:58:14;70.78;;;30.75;;
85385;SDS011;75792;42.686;23.298;2024-03-02T05:00:40;62.20;;;29.58;;
85385;SDS011;75792;42.686;23.298;2024-03-02T05:03:05;50.78;;;26.95;;
85385;SDS011;75792;42.686;23.298;2024-03-02T05:05:30;54.95;;;26.42;;
85385;SDS011;75792;42.686;23.298;2024-03-02T05:07:56;53.42;;;24.27;;
85385;SDS011;75792;42.686;23.298;2024-03-02T05:10:21;47.65;;;23.02;;
85385;SDS011;75792;42.686;23.298;2024-03-02T05:12:46;51.13;;;25.75;;
85385;SDS011;75792;42.686;23.298;2024-03-02T05:15:12;47.03;;;24.05;;
85385;SDS011;75792;42.686;23.298;2024-03-02T05:17:39;49.50;;;22.75;;
85385;SDS011;75792;42.686;23.298;2024-03-02T05:20:07;47.03;;;21.27;;
85385;SDS011;75792;42.686;23.298;2024-03-02T05:22:33;47.75;;;23.13;;
85385;SDS011;75792;42.686;23.298;2024-03-02T05:24:59;55.88;;;28.58;;
85385;SDS011;75792;42.686;23.298;2024-03-02T05:27:25;60.67;;;28.92;;
85385;SDS011;75792;42.686;23.298;2024-03-02T05:29:51;53.53;;;26.42;;
85385;SDS011;75792;42.686;23.298;2024-03-02T05:32:17;62.08;;;30.20;;
85385;SDS011;75792;42.686;23.298;2024-03-02T05:34:42;55.42;;;27.17;;
85385;SDS011;75792;42.686;23.298;2024-03-02T05:37:08;55.08;;;26.50;;
85385;SDS011;75792;42.686;23.298;2024-03-02T05:39:33;59.50;;;28.08;;
85385;SDS011;75792;42.686;23.298;2024-03-02T05:41:58;53.22;;;27.02;;
85385;SDS011;75792;42.686;23.298;2024-03-02T05:44:24;60.17;;;28.08;;
85385;SDS011;75792;42.686;23.298;2024-03-02T05:46:49;50.38;;;22.98;;
85385;SDS011;75792;42.686;23.298;2024-03-02T05:49:15;56.25;;;26.27;;
85385;SDS011;75792;42.686;23.298;2024-03-02T05:51:40;56.17;;;25.88;;
85385;SDS011;75792;42.686;23.298;2024-03-02T05:54:06;55.50;;;25.05;;
85385;SDS011;75792;42.686;23.298;2024-03-02T05:56:32;53.45;;;25.13;;
85385;SDS011;75792;42.686;23.298;2024-03-02T05:58:57;62.38;;;28.17;;
85385;SDS011;75792;42.686;23.298;2024-03-02T06:01:39;56.58;;;24.42;;
85385;SDS011;75792;42.686;23.298;2024-03-02T06:04:04;53.45;;;25.42;;
85385;SDS011;75792;42.686;23.298;2024-03-02T06:06:29;49.67;;;27.70;;
85385;SDS011;75792;42.686;23.298;2024-03-02T06:08:55;52.63;;;24.10;;
85385;SDS011;75792;42.686;23.298;2024-03-02T06:11:21;55.38;;;30.30;;
85385;SDS011;75792;42.686;23.298;2024-03-02T06:13:47;52.92;;;24.95;;
85385;SDS011;75792;42.686;23.298;2024-03-02T06:16:12;52.00;;;23.75;;
85385;SDS011;75792;42.686;23.298;2024-03-02T06:18:37;49.63;;;23.88;;
85385;SDS011;75792;42.686;23.298;2024-03-02T06:21:03;48.35;;;23.00;;
85385;SDS011;75792;42.686;23.298;2024-03-02T06:23:29;45.40;;;23.95;;
85385;SDS011;75792;42.686;23.298;2024-03-02T06:25:54;47.15;;;25.60;;
85385;SDS011;75792;42.686;23.298;2024-03-02T06:28:20;46.80;;;23.83;;
85385;SDS011;75792;42.686;23.298;2024-03-02T06:30:45;50.10;;;24.40;;
85385;SDS011;75792;42.686;23.298;2024-03-02T06:33:11;57.30;;;25.15;;
85385;SDS011;75792;42.686;23.298;2024-03-02T06:35:36;46.65;;;23.63;;
85385;SDS011;75792;42.686;23.298;2024-03-02T06:38:02;41.47;;;21.85;;
85385;SDS011;75792;42.686;23.298;2024-03-02T06:40:27;39.88;;;19.40;;
85385;SDS011;75792;42.686;23.298;2024-03-02T06:42:53;31.80;;;17.13;;
85385;SDS011;75792;42.686;23.298;2024-03-02T06:45:18;32.58;;;17.52;;
85385;SDS011;75792;42.686;23.298;2024-03-02T06:47:44;32.20;;;17.75;;
85385;SDS011;75792;42.686;23.298;2024-03-02T06:50:09;34.28;;;16.15;;
85385;SDS011;75792;42.686;23.298;2024-03-02T06:52:35;31.65;;;16.80;;
85385;SDS011;75792;42.686;23.298;2024-03-02T06:55:01;35.78;;;17.08;;
85385;SDS011;75792;42.686;23.298;2024-03-02T06:57:26;34.28;;;16.70;;
85385;SDS011;75792;42.686;23.298;2024-03-02T06:59:52;34.90;;;18.25;;
85385;SDS011;75792;42.686;23.298;2024-03-02T07:02:19;36.63;;;18.83;;
85385;SDS011;75792;42.686;23.298;2024-03-02T07:07:11;31.90;;;16.25;;
85385;SDS011;75792;42.686;23.298;2024-03-02T07:09:37;37.50;;;18.00;;
85385;SDS011;75792;42.686;23.298;2024-03-02T07:12:02;36.55;;;18.38;;
85385;SDS011;75792;42.686;23.298;2024-03-02T07:14:28;31.05;;;16.80;;
85385;SDS011;75792;42.686;23.298;2024-03-02T07:17:14;38.28;;;18.83;;
85385;SDS011;75792;42.686;23.298;2024-03-02T07:19:39;37.28;;;17.55;;
85385;SDS011;75792;42.686;23.298;2024-03-02T07:22:07;34.92;;;15.82;;
85385;SDS011;75792;42.686;23.298;2024-03-02T07:24:39;37.30;;;16.42;;
85385;SDS011;75792;42.686;23.298;2024-03-02T07:27:05;32.65;;;15.80;;
85385;SDS011;75792;42.686;23.298;2024-03-02T07:29:31;34.78;;;17.40;;
85385;SDS011;75792;42.686;23.298;2024-03-02T07:31:56;33.88;;;20.02;;
85385;SDS011;75792;42.686;23.298;2024-03-02T07:34:22;35.92;;;19.38;;
85385;SDS011;75792;42.686;23.298;2024-03-02T07:36:47;34.25;;;17.73;;
85385;SDS011;75792;42.686;23.298;2024-03-02T07:39:12;31.90;;;17.38;;
85385;SDS011;75792;42.686;23.298;2024-03-02T07:41:38;35.45;;;18.38;;
85385;SDS011;75792;42.686;23.298;2024-03-02T07:44:03;32.15;;;17.33;;
85385;SDS011;75792;42.686;23.298;2024-03-02T07:46:29;32.33;;;16.48;;
85385;SDS011;75792;42.686;23.298;2024-03-02T07:48:54;31.48;;;17.92;;
85385;SDS011;75792;42.686;23.298;2024-03-02T07:51:20;33.30;;;16.13;;
85385;SDS011;75792;42.686;23.298;2024-03-02T07:53:45;30.15;;;16.02;;
85385;SDS011;75792;42.686;23.298;2024-03-02T07:56:10;33.08;;;16.52;;
85385;SDS011;75792;42.686;23.298;2024-03-02T07:58:36;34.47;;;15.80;;
85385;SDS011;75792;42.686;23.298;2024-03-02T08:01:01;35.83;;;15.55;;
85385;SDS011;75792;42.686;23.298;2024-03-02T08:03:27;31.90;;;16.48;;
85385;SDS011;75792;42.686;23.298;2024-03-02T08:05:52;31.58;;;15.90;;
85385;SDS011;75792;42.686;23.298;2024-03-02T08:08:18;39.42;;;18.65;;
85385;SDS011;75792;42.686;23.298;2024-03-02T08:10:44;39.20;;;21.08;;
85385;SDS011;75792;42.686;23.298;2024-03-02T08:13:09;35.33;;;19.05;;
85385;SDS011;75792;42.686;23.298;2024-03-02T08:15:34;34.92;;;17.38;;
85385;SDS011;75792;42.686;23.298;2024-03-02T08:18:00;32.38;;;15.90;;
85385;SDS011;75792;42.686;23.298;2024-03-02T08:20:26;32.65;;;17.20;;
85385;SDS011;75792;42.686;23.298;2024-03-02T08:22:52;38.15;;;15.88;;
85385;SDS011;75792;42.686;23.298;2024-03-02T08:25:20;34.30;;;16.20;;
85385;SDS011;75792;42.686;23.298;2024-03-02T08:27:45;31.17;;;16.30;;
85385;SDS011;75792;42.686;23.298;2024-03-02T08:30:11;38.13;;;17.08;;
85385;SDS011;75792;42.686;23.298;2024-03-02T08:32:37;35.25;;;18.77;;
85385;SDS011;75792;42.686;23.298;2024-03-02T08:35:03;33.13;;;16.92;;
85385;SDS011;75792;42.686;23.298;2024-03-02T08:39:54;28.38;;;15.23;;
85385;SDS011;75792;42.686;23.298;2024-03-02T08:42:19;31.25;;;15.95;;
85385;SDS011;75792;42.686;23.298;2024-03-02T08:44:45;33.70;;;16.40;;
85385;SDS011;75792;42.686;23.298;2024-03-02T08:47:10;34.15;;;16.65;;
85385;SDS011;75792;42.686;23.298;2024-03-02T08:49:35;31.58;;;15.02;;
85385;SDS011;75792;42.686;23.298;2024-03-02T08:52:01;34.58;;;17.17;;
85385;SDS011;75792;42.686;23.298;2024-03-02T08:54:26;29.38;;;15.65;;
85385;SDS011;75792;42.686;23.298;2024-03-02T08:59:18;27.95;;;13.50;;
85385;SDS011;75792;42.686;23.298;2024-03-02T09:01:44;29.27;;;15.25;;
85385;SDS011;75792;42.686;23.298;2024-03-02T09:04:10;23.23;;;13.77;;
85385;SDS011;75792;42.686;23.298;2024-03-02T09:06:36;26.83;;;13.45;;
85385;SDS011;75792;42.686;23.298;2024-03-02T09:09:02;31.73;;;15.75;;
85385;SDS011;75792;42.686;23.298;2024-03-02T09:11:28;36.13;;;15.35;;
85385;SDS011;75792;42.686;23.298;2024-03-02T09:16:21;25.00;;;13.15;;
85385;SDS011;75792;42.686;23.298;2024-03-02T09:18:46;26.35;;;12.77;;
85385;SDS011;75792;42.686;23.298;2024-03-02T09:21:12;31.63;;;15.65;;
85385;SDS011;75792;42.686;23.298;2024-03-02T09:23:38;29.58;;;14.30;;
85385;SDS011;75792;42.686;23.298;2024-03-02T09:26:05;27.65;;;14.18;;
85385;SDS011;75792;42.686;23.298;2024-03-02T09:28:31;27.92;;;14.20;;
85385;SDS011;75792;42.686;23.298;2024-03-02T09:30:56;25.65;;;15.20;;
85385;SDS011;75792;42.686;23.298;2024-03-02T09:33:22;25.30;;;13.18;;
85385;SDS011;75792;42.686;23.298;2024-03-02T09:35:48;30.17;;;15.93;;
85385;SDS011;75792;42.686;23.298;2024-03-02T09:38:14;28.70;;;14.65;;
85385;SDS011;75792;42.686;23.298;2024-03-02T09:40:41;30.65;;;15.75;;
85385;SDS011;75792;42.686;23.298;2024-03-02T09:43:07;30.10;;;15.10;;
85385;SDS011;75792;42.686;23.298;2024-03-02T09:45:34;25.95;;;13.90;;
85385;SDS011;75792;42.686;23.298;2024-03-02T09:48:00;27.02;;;14.68;;
85385;SDS011;75792;42.686;23.298;2024-03-02T09:50:26;28.95;;;15.73;;
85385;SDS011;75792;42.686;23.298;2024-03-02T09:52:52;32.88;;;17.50;;
85385;SDS011;75792;42.686;23.298;2024-03-02T09:57:44;28.25;;;15.15;;
85385;SDS011;75792;42.686;23.298;2024-03-02T10:00:10;33.67;;;17.20;;
85385;SDS011;75792;42.686;23.298;2024-03-02T10:02:42;31.35;;;15.43;;
85385;SDS011;75792;42.686;23.298;2024-03-02T10:05:09;28.73;;;15.32;;
85385;SDS011;75792;42.686;23.298;2024-03-02T10:07:34;31.48;;;18.38;;
85385;SDS011;75792;42.686;23.298;2024-03-02T10:10:12;31.08;;;16.42;;
85385;SDS011;75792;42.686;23.298;2024-03-02T10:12:40;31.95;;;16.33;;
85385;SDS011;75792;42.686;23.298;2024-03-02T10:15:06;33.47;;;17.23;;
85385;SDS011;75792;42.686;23.298;2024-03-02T10:17:32;28.13;;;14.90;;
85385;SDS011;75792;42.686;23.298;2024-03-02T10:19:58;37.78;;;18.55;;
85385;SDS011;75792;42.686;23.298;2024-03-02T10:22:24;34.78;;;17.40;;
85385;SDS011;75792;42.686;23.298;2024-03-02T10:24:54;28.83;;;14.38;;
85385;SDS011;75792;42.686;23.298;2024-03-02T10:27:23;28.15;;;15.73;;
85385;SDS011;75792;42.686;23.298;2024-03-02T10:29:51;35.78;;;16.75;;
85385;SDS011;75792;42.686;23.298;2024-03-02T10:32:17;37.75;;;16.08;;
85385;SDS011;75792;42.686;23.298;2024-03-02T10:34:44;35.40;;;15.48;;
85385;SDS011;75792;42.686;23.298;2024-03-02T10:37:11;33.92;;;18.17;;
85385;SDS011;75792;42.686;23.298;2024-03-02T10:39:38;33.50;;;18.45;;
85385;SDS011;75792;42.686;23.298;2024-03-02T10:42:07;37.85;;;17.45;;
85385;SDS011;75792;42.686;23.298;2024-03-02T10:44:33;31.75;;;15.20;;
85385;SDS011;75792;42.686;23.298;2024-03-02T10:47:01;34.63;;;18.33;;
85385;SDS011;75792;42.686;23.298;2024-03-02T10:49:29;33.08;;;16.85;;
85385;SDS011;75792;42.686;23.298;2024-03-02T10:52:01;43.50;;;18.98;;
85385;SDS011;75792;42.686;23.298;2024-03-02T10:54:27;31.98;;;17.42;;
85385;SDS011;75792;42.686;23.298;2024-03-02T10:57:00;34.85;;;17.75;;
85385;SDS011;75792;42.686;23.298;2024-03-02T10:59:35;35.22;;;17.05;;
85385;SDS011;75792;42.686;23.298;2024-03-02T11:02:02;30.17;;;17.13;;
85385;SDS011;75792;42.686;23.298;2024-03-02T11:04:30;33.28;;;17.75;;
85385;SDS011;75792;42.686;23.298;2024-03-02T11:07:04;31.27;;;15.98;;
85385;SDS011;75792;42.686;23.298;2024-03-02T11:09:35;35.85;;;17.17;;
85385;SDS011;75792;42.686;23.298;2024-03-02T11:15:04;34.90;;;16.50;;
85385;SDS011;75792;42.686;23.298;2024-03-02T11:17:35;28.27;;;16.05;;
85385;SDS011;75792;42.686;23.298;2024-03-02T11:20:03;30.80;;;16.73;;
85385;SDS011;75792;42.686;23.298;2024-03-02T11:22:29;32.30;;;17.95;;
85385;SDS011;75792;42.686;23.298;2024-03-02T11:24:55;31.40;;;16.85;;
85385;SDS011;75792;42.686;23.298;2024-03-02T11:33:01;38.28;;;16.33;;
85385;SDS011;75792;42.686;23.298;2024-03-02T11:35:37;29.08;;;15.05;;
85385;SDS011;75792;42.686;23.298;2024-03-02T11:38:07;28.33;;;14.52;;
85385;SDS011;75792;42.686;23.298;2024-03-02T11:40:34;30.55;;;15.93;;
85385;SDS011;75792;42.686;23.298;2024-03-02T11:43:00;31.02;;;14.82;;
85385;SDS011;75792;42.686;23.298;2024-03-02T11:45:26;25.48;;;16.05;;
85385;SDS011;75792;42.686;23.298;2024-03-02T11:47:58;31.92;;;15.85;;
85385;SDS011;75792;42.686;23.298;2024-03-02T11:51:09;33.65;;;17.27;;
85385;SDS011;75792;42.686;23.298;2024-03-02T11:53:16;31.55;;;16.13;;
85385;SDS011;75792;42.686;23.298;2024-03-02T11:55:42;32.25;;;17.92;;
85385;SDS011;75792;42.686;23.298;2024-03-02T11:58:13;33.08;;;16.73;;
85385;SDS011;75792;42.686;23.298;2024-03-02T12:00:42;25.88;;;13.55;;
85385;SDS011;75792;42.686;23.298;2024-03-02T12:03:09;28.40;;;17.45;;
85385;SDS011;75792;42.686;23.298;2024-03-02T12:05:37;32.70;;;15.45;;
85385;SDS011;75792;42.686;23.298;2024-03-02T12:08:04;31.40;;;15.00;;
85385;SDS011;75792;42.686;23.298;2024-03-02T12:10:31;28.27;;;14.52;;
85385;SDS011;75792;42.686;23.298;2024-03-02T12:15:27;26.48;;;16.02;;
85385;SDS011;75792;42.686;23.298;2024-03-02T12:17:55;26.08;;;15.57;;
85385;SDS011;75792;42.686;23.298;2024-03-02T12:20:21;29.45;;;16.08;;
85385;SDS011;75792;42.686;23.298;2024-03-02T12:22:49;28.00;;;16.00;;
85385;SDS011;75792;42.686;23.298;2024-03-02T12:25:17;30.13;;;16.02;;
85385;SDS011;75792;42.686;23.298;2024-03-02T12:27:42;31.13;;;16.60;;
85385;SDS011;75792;42.686;23.298;2024-03-02T12:30:09;29.17;;;16.00;;
85385;SDS011;75792;42.686;23.298;2024-03-02T12:32:36;25.58;;;14.27;;
85385;SDS011;75792;42.686;23.298;2024-03-02T12:35:04;27.55;;;15.40;;
85385;SDS011;75792;42.686;23.298;2024-03-02T12:37:29;27.52;;;14.93;;
85385;SDS011;75792;42.686;23.298;2024-03-02T12:42:21;27.30;;;15.23;;
85385;SDS011;75792;42.686;23.298;2024-03-02T12:44:46;29.30;;;15.63;;
85385;SDS011;75792;42.686;23.298;2024-03-02T12:47:12;27.88;;;18.85;;
85385;SDS011;75792;42.686;23.298;2024-03-02T12:49:39;24.98;;;14.60;;
85385;SDS011;75792;42.686;23.298;2024-03-02T12:52:06;25.25;;;15.10;;
85385;SDS011;75792;42.686;23.298;2024-03-02T12:54:31;28.50;;;14.73;;
85385;SDS011;75792;42.686;23.298;2024-03-02T12:56:58;25.38;;;14.25;;
85385;SDS011;75792;42.686;23.298;2024-03-02T12:59:24;27.20;;;15.43;;
85385;SDS011;75792;42.686;23.298;2024-03-02T13:01:52;24.83;;;14.88;;
85385;SDS011;75792;42.686;23.298;2024-03-02T13:04:25;28.30;;;14.32;;
85385;SDS011;75792;42.686;23.298;2024-03-02T13:06:53;25.52;;;16.27;;
85385;SDS011;75792;42.686;23.298;2024-03-02T13:09:20;31.77;;;14.35;;
85385;SDS011;75792;42.686;23.298;2024-03-02T13:11:46;24.88;;;14.80;;
85385;SDS011;75792;42.686;23.298;2024-03-02T13:14:12;23.42;;;14.18;;
85385;SDS011;75792;42.686;23.298;2024-03-02T13:16:41;25.25;;;13.95;;
85385;SDS011;75792;42.686;23.298;2024-03-02T13:19:13;23.70;;;13.98;;
85385;SDS011;75792;42.686;23.298;2024-03-02T13:21:38;31.60;;;16.17;;
85385;SDS011;75792;42.686;23.298;2024-03-02T13:24:04;27.95;;;16.30;;
85385;SDS011;75792;42.686;23.298;2024-03-02T13:26:30;27.58;;;15.38;;
85385;SDS011;75792;42.686;23.298;2024-03-02T13:28:56;25.17;;;14.50;;
85385;SDS011;75792;42.686;23.298;2024-03-02T13:31:21;26.10;;;14.15;;
85385;SDS011;75792;42.686;23.298;2024-03-02T13:33:47;25.45;;;13.77;;
85385;SDS011;75792;42.686;23.298;2024-03-02T13:36:12;24.52;;;12.73;;
85385;SDS011;75792;42.686;23.298;2024-03-02T13:38:38;26.42;;;16.10;;
85385;SDS011;75792;42.686;23.298;2024-03-02T13:41:03;24.42;;;13.63;;
85385;SDS011;75792;42.686;23.298;2024-03-02T13:43:29;28.35;;;15.38;;
85385;SDS011;75792;42.686;23.298;2024-03-02T13:45:57;27.30;;;16.70;;
85385;SDS011;75792;42.686;23.298;2024-03-02T13:48:27;26.98;;;16.88;;
85385;SDS011;75792;42.686;23.298;2024-03-02T13:50:52;26.67;;;14.93;;
85385;SDS011;75792;42.686;23.298;2024-03-02T13:53:18;26.27;;;15.18;;
85385;SDS011;75792;42.686;23.298;2024-03-02T13:55:44;29.80;;;16.45;;
85385;SDS011;75792;42.686;23.298;2024-03-02T13:58:10;29.38;;;15.30;;
85385;SDS011;75792;42.686;23.298;2024-03-02T14:00:36;27.10;;;15.05;;
85385;SDS011;75792;42.686;23.298;2024-03-02T14:03:03;25.73;;;13.68;;
85385;SDS011;75792;42.686;23.298;2024-03-02T14:05:30;25.30;;;14.95;;
85385;SDS011;75792;42.686;23.298;2024-03-02T14:07:55;20.95;;;12.65;;
85385;SDS011;75792;42.686;23.298;2024-03-02T14:10:20;25.95;;;14.48;;
85385;SDS011;75792;42.686;23.298;2024-03-02T14:12:48;25.35;;;13.27;;
85385;SDS011;75792;42.686;23.298;2024-03-02T14:15:14;27.23;;;14.32;;
85385;SDS011;75792;42.686;23.298;2024-03-02T14:17:40;30.23;;;15.73;;
85385;SDS011;75792;42.686;23.298;2024-03-02T14:20:05;24.98;;;13.85;;
85385;SDS011;75792;42.686;23.298;2024-03-02T14:22:32;27.67;;;15.75;;
85385;SDS011;75792;42.686;23.298;2024-03-02T14:24:58;27.85;;;15.02;;
85385;SDS011;75792;42.686;23.298;2024-03-02T14:27:24;22.65;;;13.85;;
85385;SDS011;75792;42.686;23.298;2024-03-02T14:29:50;25.92;;;14.25;;
85385;SDS011;75792;42.686;23.298;2024-03-02T14:32:16;24.33;;;14.07;;
85385;SDS011;75792;42.686;23.298;2024-03-02T14:34:41;25.25;;;15.30;;
85385;SDS011;75792;42.686;23.298;2024-03-02T14:37:07;26.30;;;18.30;;
85385;SDS011;75792;42.686;23.298;2024-03-02T14:39:32;27.50;;;15.27;;